Time;durP1;ratioP1;P1;durP2;ratioP2;P2;SDS_P1;SDS_P2;PMS_P1;PMS_P2;Temp;Humidity;BMP_temperature;BMP_pressure;BME280_temperature;BME280_humidity;BME280_pressure;Samples;Min_cycle;Max_cycle;Signal;HPM_P1;HPM_P2
2021/12/09 00:02:14;;;;;;;7.03;3.13;;;;;;;3.49;100.00;96769.94;5056113;28;20217;-74
2021/12/09 00:04:41;;;;;;;6.07;3.30;;;;;;;3.48;100.00;96765.72;5055683;28;20539;-70
2021/12/09 00:07:08;;;;;;;7.07;3.20;;;;;;;3.42;100.00;96775.22;5056154;28;20480;-72
2021/12/09 00:09:35;;;;;;;7.37;3.17;;;;;;;3.39;100.00;96772.19;5056068;28;20202;-70
2021/12/09 00:12:01;;;;;;;6.93;2.80;;;;;;;3.38;100.00;96771.38;5055678;28;20595;-71
2021/12/09 00:14:31;;;;;;;3.97;2.30;;;;;;;3.27;100.00;96771.19;5056068;28;20221;-70
2021/12/09 00:17:02;;;;;;;6.17;2.33;;;;;;;3.24;100.00;96769.78;5056106;28;20212;-71
2021/12/09 00:19:28;;;;;;;6.50;2.60;;;;;;;3.24;100.00;96763.72;5055752;28;20584;-70
2021/12/09 00:21:56;;;;;;;7.73;2.33;;;;;;;3.19;100.00;96771.41;5055917;28;20190;-71
2021/12/09 00:24:22;;;;;;;8.53;2.70;;;;;;;3.16;100.00;96777.09;5055853;28;20232;-70
2021/12/09 00:26:49;;;;;;;2.80;1.83;;;;;;;3.13;100.00;96775.69;5055983;28;20197;-71
2021/12/09 00:29:16;;;;;;;7.40;2.53;;;;;;;3.12;100.00;96774.03;5055915;28;20186;-71
2021/12/09 00:31:44;;;;;;;4.83;2.10;;;;;;;3.11;100.00;96776.88;5056702;28;20193;-70
2021/12/09 00:34:11;;;;;;;4.67;1.90;;;;;;;3.07;100.00;96788.81;5059450;28;20530;-71
2021/12/09 00:36:41;;;;;;;7.17;2.47;;;;;;;3.04;100.00;96783.94;5059245;28;20192;-70
2021/12/09 00:39:10;;;;;;;6.83;2.40;;;;;;;3.09;100.00;96786.78;5059452;28;20190;-71
2021/12/09 00:41:37;;;;;;;10.83;2.17;;;;;;;3.07;100.00;96789.59;5059044;28;20200;-71
2021/12/09 00:44:04;;;;;;;3.47;1.73;;;;;;;3.03;100.00;96795.47;5059195;28;20229;-71
2021/12/09 00:46:30;;;;;;;6.97;2.30;;;;;;;3.06;100.00;96787.97;5059312;28;20185;-71
2021/12/09 00:48:57;;;;;;;5.30;2.20;;;;;;;3.17;100.00;96797.06;5060110;28;20468;-71
2021/12/09 00:51:23;;;;;;;5.83;2.30;;;;;;;3.11;100.00;96792.63;5059292;28;20196;-74
2021/12/09 00:53:50;;;;;;;7.10;2.33;;;;;;;3.11;100.00;96792.63;5059094;28;20225;-74
2021/12/09 00:56:17;;;;;;;4.77;2.00;;;;;;;3.12;100.00;96789.00;5059167;28;20228;-74
2021/12/09 00:58:44;;;;;;;4.50;2.23;;;;;;;3.17;100.00;96797.06;5059046;28;20190;-74
2021/12/09 01:01:11;;;;;;;4.37;2.30;;;;;;;3.16;100.00;96798.88;5058793;28;20608;-72
2021/12/09 01:03:39;;;;;;;7.00;2.40;;;;;;;3.17;100.00;96802.31;5058602;28;20535;-72
2021/12/09 01:06:06;;;;;;;9.30;2.80;;;;;;;3.21;100.00;96806.16;5059034;28;20190;-72
2021/12/09 01:08:32;;;;;;;6.27;2.33;;;;;;;3.15;100.00;96805.16;5058985;28;20197;-73
2021/12/09 01:11:00;;;;;;;5.43;2.50;;;;;;;3.12;100.00;96804.75;5058601;28;20209;-72
2021/12/09 01:13:27;;;;;;;7.07;2.30;;;;;;;3.15;100.00;96810.41;5058707;28;20252;-72
2021/12/09 01:15:54;;;;;;;6.47;2.00;;;;;;;3.16;100.00;96803.34;5058532;28;20608;-72
2021/12/09 01:18:20;;;;;;;7.10;2.40;;;;;;;3.13;100.00;96807.19;5058734;28;20193;-72
2021/12/09 01:20:47;;;;;;;5.17;2.00;;;;;;;3.13;100.00;96798.47;5058398;28;20593;-72
2021/12/09 01:23:13;;;;;;;7.60;2.30;;;;;;;3.08;100.00;96803.53;5058455;28;20213;-71
2021/12/09 01:25:40;;;;;;;3.90;1.77;;;;;;;3.12;100.00;96804.75;5058647;28;20189;-72
2021/12/09 01:28:09;;;;;;;8.87;2.20;;;;;;;3.15;100.00;96810.41;5058569;28;20200;-72
2021/12/09 01:30:36;;;;;;;8.00;2.60;;;;;;;3.10;100.00;96806.75;5058535;28;20197;-72
2021/12/09 01:33:06;;;;;;;6.53;2.50;;;;;;;3.13;100.00;96808.97;5058433;28;20280;-72
2021/12/09 01:35:35;;;;;;;6.83;2.17;;;;;;;3.19;100.00;96813.41;5058447;28;20296;-68
2021/12/09 01:38:10;;;;;;;7.53;2.17;;;;;;;3.20;100.00;96815.84;5058395;28;20197;-68
2021/12/09 01:40:36;;;;;;;9.23;2.57;;;;;;;3.09;100.00;96828.78;5058266;28;20193;-68
2021/12/09 01:43:03;;;;;;;7.20;2.47;;;;;;;3.18;100.00;96830.19;5057552;28;20519;-68
2021/12/09 01:45:30;;;;;;;4.67;2.10;;;;;;;3.14;100.00;96835.03;5058249;28;20189;-69
2021/12/09 01:47:56;;;;;;;6.00;2.03;;;;;;;3.18;100.00;96830.19;5058202;28;20189;-68
2021/12/09 01:50:24;;;;;;;8.03;2.27;;;;;;;3.16;100.00;96827.75;5058155;28;20198;-69
2021/12/09 01:52:50;;;;;;;9.97;2.30;;;;;;;3.11;100.00;96826.78;5058098;28;20186;-68
2021/12/09 01:55:19;;;;;;;8.97;2.27;;;;;;;3.12;100.00;96829.16;5057652;28;20667;-68
2021/12/09 01:57:52;;;;;;;8.80;2.30;;;;;;;3.10;100.00;96825.13;5057628;28;20580;-68
2021/12/09 02:00:22;;;;;;;5.90;2.30;;;;;;;3.14;100.00;96821.91;5057911;28;20220;-68
2021/12/09 02:02:50;;;;;;;4.73;2.40;;;;;;;3.10;100.00;96804.94;5057803;28;20213;-69
2021/12/09 02:05:17;;;;;;;5.30;2.40;;;;;;;3.17;100.00;96805.72;5057490;28;20564;-68
2021/12/09 02:07:44;;;;;;;6.43;2.50;;;;;;;3.11;100.00;96814.44;5057828;28;20216;-68
2021/12/09 02:10:17;;;;;;;4.97;2.43;;;;;;;3.09;100.00;96816.47;5057609;28;20197;-68
2021/12/09 02:12:46;;;;;;;6.13;2.40;;;;;;;3.14;100.00;96829.78;5057657;28;20186;-68
2021/12/09 02:15:12;;;;;;;7.37;2.40;;;;;;;3.21;100.00;96829.78;5057587;28;20225;-69
2021/12/09 02:17:39;;;;;;;6.13;2.37;;;;;;;3.15;100.00;96838.47;5057578;28;20546;-69
2021/12/09 02:20:08;;;;;;;7.13;2.67;;;;;;;3.13;100.00;96843.13;5057480;28;20496;-69
2021/12/09 02:22:34;;;;;;;6.63;2.67;;;;;;;3.18;100.00;96845.94;5057188;28;20699;-72
2021/12/09 02:25:01;;;;;;;8.80;3.90;;;;;;;3.25;100.00;96846.75;5057403;28;20239;-72
2021/12/09 02:27:28;;;;;;;6.50;2.97;;;;;;;3.27;100.00;96865.75;5057467;28;20190;-72
2021/12/09 02:29:56;;;;;;;8.53;3.60;;;;;;;3.24;100.00;96866.13;5057388;28;20197;-72
2021/12/09 02:32:23;;;;;;;8.37;3.93;;;;;;;3.22;100.00;96873.41;5056993;28;20194;-72
2021/12/09 02:34:50;;;;;;;7.03;3.80;;;;;;;3.22;100.00;96873.41;5057231;28;20232;-72
2021/12/09 02:37:16;;;;;;;7.50;4.03;;;;;;;3.25;100.00;96870.41;5057268;28;20194;-72
2021/12/09 02:39:44;;;;;;;11.27;4.50;;;;;;;3.27;100.00;96877.06;5057151;28;20200;-72
2021/12/09 02:42:12;;;;;;;8.10;4.37;;;;;;;3.33;100.00;96883.31;5056864;28;20192;-72
2021/12/09 02:44:39;;;;;;;9.77;4.27;;;;;;;3.31;100.00;96882.72;5056958;28;20231;-72
2021/12/09 02:47:06;;;;;;;9.13;4.40;;;;;;;3.33;100.00;96880.69;5056729;28;20190;-72
2021/12/09 02:49:33;;;;;;;13.60;4.40;;;;;;;3.33;100.00;96878.06;5056670;28;20600;-72
2021/12/09 02:52:01;;;;;;;12.47;4.90;;;;;;;3.36;100.00;96875.03;5056968;28;20205;-72
2021/12/09 02:54:28;;;;;;;9.80;4.90;;;;;;;3.33;100.00;96867.53;5056200;28;20221;-72
2021/12/09 02:56:59;;;;;;;10.07;5.00;;;;;;;3.30;100.00;96866.13;5056543;28;20231;-72
2021/12/09 02:59:25;;;;;;;10.53;5.00;;;;;;;3.31;100.00;96867.78;5056892;28;20213;-72
2021/12/09 03:01:58;;;;;;;13.93;5.97;;;;;;;3.32;100.00;96860.69;5056511;28;20595;-72
2021/12/09 03:04:47;;;;;;;12.73;5.47;;;;;;;3.34;100.00;96856.06;5056611;28;20255;-72
2021/12/09 03:07:27;;;;;;;8.30;4.60;;;;;;;3.38;100.00;96862.50;5056400;28;20255;-72
2021/12/09 03:09:59;;;;;;;12.60;4.80;;;;;;;3.40;100.00;96863.94;5056761;28;20215;-74
2021/12/09 03:12:29;;;;;;;9.43;6.07;;;;;;;3.40;100.00;96858.69;5056207;28;20255;-74
2021/12/09 03:14:56;;;;;;;10.07;5.13;;;;;;;3.38;100.00;96865.13;5056583;28;20280;-74
2021/12/09 03:17:23;;;;;;;11.40;4.93;;;;;;;3.43;100.00;96870.59;5056592;28;20280;-74
2021/12/09 03:19:50;;;;;;;8.03;4.47;;;;;;;3.48;100.00;96870.78;5056578;28;20193;-74
2021/12/09 03:22:17;;;;;;;12.17;4.73;;;;;;;3.46;100.00;96871.00;5056240;28;20208;-74
2021/12/09 03:24:44;;;;;;;12.90;4.90;;;;;;;3.41;100.00;96859.47;5056323;28;20252;-74
2021/12/09 03:27:10;;;;;;;9.03;4.50;;;;;;;3.41;100.00;96860.28;5056509;28;20198;-74
2021/12/09 03:29:38;;;;;;;9.50;4.67;;;;;;;3.41;100.00;96867.34;5056158;28;20510;-74
2021/12/09 03:32:08;;;;;;;11.63;4.87;;;;;;;3.39;100.00;96864.91;5056404;28;20197;-74
2021/12/09 03:34:36;;;;;;;9.20;4.47;;;;;;;3.40;100.00;96866.56;5056247;28;20259;-74
2021/12/09 03:37:07;;;;;;;10.97;5.03;;;;;;;3.34;100.00;96871.81;5056404;28;20193;-74
2021/12/09 03:39:37;;;;;;;11.60;5.23;;;;;;;3.38;100.00;96878.25;5056361;28;20193;-74
2021/12/09 03:42:06;;;;;;;13.30;5.33;;;;;;;3.38;100.00;96880.88;5056320;28;20186;-74
2021/12/09 03:44:33;;;;;;;10.20;4.87;;;;;;;3.41;100.00;96891.81;5055827;28;20538;-75
2021/12/09 03:47:03;;;;;;;11.57;5.33;;;;;;;3.47;100.00;96882.28;5056112;28;20201;-74
2021/12/09 03:49:29;;;;;;;11.43;5.13;;;;;;;3.40;100.00;96881.50;5056200;28;20194;-74
2021/12/09 03:51:56;;;;;;;11.73;4.77;;;;;;;3.42;100.00;96884.72;5056205;28;20190;-75
2021/12/09 03:54:24;;;;;;;12.77;5.57;;;;;;;3.39;100.00;96885.94;5055825;28;20213;-74
2021/12/09 03:56:50;;;;;;;10.50;4.93;;;;;;;3.39;100.00;96885.94;5055951;28;20465;-74
2021/12/09 03:59:17;;;;;;;7.37;4.97;;;;;;;3.43;100.00;96886.38;5056173;28;20201;-74
2021/12/09 04:01:45;;;;;;;10.33;4.37;;;;;;;3.40;99.98;96887.56;5056139;28;20205;-74
2021/12/09 04:04:13;;;;;;;11.73;4.87;;;;;;;3.41;99.75;96894.44;5055982;28;20527;-74
2021/12/09 04:06:40;;;;;;;12.70;4.93;;;;;;;3.39;100.00;96893.03;5058610;28;20190;-75
2021/12/09 04:09:09;;;;;;;14.33;4.77;;;;;;;3.40;100.00;96898.09;5060571;28;20193;-74
2021/12/09 04:11:36;;;;;;;9.13;4.93;;;;;;;3.34;100.00;96893.63;5059648;28;20213;-74
2021/12/09 04:14:03;;;;;;;11.57;4.77;;;;;;;3.33;100.00;96893.81;5059831;28;20520;-74
2021/12/09 04:16:29;;;;;;;12.90;4.07;;;;;;;3.39;100.00;96893.03;5059572;28;20193;-74
2021/12/09 04:18:56;;;;;;;10.90;3.97;;;;;;;3.33;100.00;96901.69;5059803;28;20198;-74
2021/12/09 04:21:23;;;;;;;9.50;4.60;;;;;;;3.30;100.00;96896.88;5059427;28;20190;-74
2021/12/09 04:23:49;;;;;;;10.23;4.53;;;;;;;3.29;100.00;96893.41;5059631;28;20236;-74
2021/12/09 04:26:15;;;;;;;9.43;5.00;;;;;;;3.20;100.00;96897.25;5059341;28;20204;-74
2021/12/09 04:28:43;;;;;;;10.37;4.63;;;;;;;3.14;100.00;96897.25;5059523;28;20189;-74
2021/12/09 04:31:09;;;;;;;13.00;4.80;;;;;;;3.16;100.00;96901.28;5059412;28;20186;-74
2021/12/09 04:33:36;;;;;;;12.00;5.20;;;;;;;3.04;100.00;96897.66;5058986;28;20221;-74
2021/12/09 04:36:02;;;;;;;10.17;4.77;;;;;;;3.06;100.00;96902.66;5059056;28;20635;-74
2021/12/09 04:38:29;;;;;;;9.97;4.20;;;;;;;3.05;100.00;96908.94;5059321;28;20208;-74
2021/12/09 04:40:55;;;;;;;13.30;4.60;;;;;;;3.10;100.00;96907.34;5058899;28;20190;-74
2021/12/09 04:43:22;;;;;;;7.20;4.50;;;;;;;2.99;100.00;96915.00;5059139;28;20213;-74
2021/12/09 04:45:48;;;;;;;11.43;4.73;;;;;;;3.00;100.00;96927.09;5059256;28;20200;-74
2021/12/09 04:48:15;;;;;;;8.83;4.27;;;;;;;3.02;100.00;96931.16;5059170;28;20216;-74
2021/12/09 04:50:42;;;;;;;6.97;4.10;;;;;;;3.05;100.00;96945.69;5058748;28;20616;-74
2021/12/09 04:53:09;;;;;;;10.33;4.60;;;;;;;3.08;100.00;96945.31;5058768;28;20236;-74
2021/12/09 04:55:36;;;;;;;12.13;4.30;;;;;;;3.04;100.00;96946.72;5059144;28;20201;-74
2021/12/09 04:58:07;;;;;;;10.27;4.13;;;;;;;3.10;100.00;96948.53;5058777;28;20480;-74
2021/12/09 05:00:37;;;;;;;9.77;4.03;;;;;;;3.12;100.00;96959.66;5058707;28;20220;-70
2021/12/09 05:03:06;;;;;;;7.67;4.00;;;;;;;3.20;100.00;96954.22;5058334;28;20185;-70
2021/12/09 05:05:38;;;;;;;5.67;3.17;;;;;;;3.14;98.79;96958.44;5058818;28;20224;-70
2021/12/09 05:08:07;;;;;;;9.90;3.70;;;;;;;3.14;100.00;96963.69;5058520;28;20239;-71
2021/12/09 05:10:49;;;;;;;6.37;3.80;;;;;;;3.13;100.00;96964.72;5058623;28;20220;-70
2021/12/09 05:13:16;;;;;;;6.80;3.73;;;;;;;3.12;99.36;96959.66;5058226;28;20243;-70
2021/12/09 05:15:43;;;;;;;8.90;3.97;;;;;;;3.11;100.00;96966.72;5059263;28;20236;-70
2021/12/09 05:18:09;;;;;;;8.47;3.77;;;;;;;3.07;100.00;96960.25;5058204;28;20193;-70
2021/12/09 05:20:36;;;;;;;9.73;3.83;;;;;;;3.02;100.00;96969.75;5058415;28;20522;-70
2021/12/09 05:23:03;;;;;;;6.87;4.00;;;;;;;3.02;100.00;96977.63;5058108;28;20202;-68
2021/12/09 05:25:30;;;;;;;8.07;3.37;;;;;;;3.02;100.00;96982.88;5058313;28;20201;-70
2021/12/09 05:27:57;;;;;;;6.07;2.93;;;;;;;2.96;100.00;96987.09;5058481;28;20501;-70
2021/12/09 05:30:27;;;;;;;8.20;3.40;;;;;;;2.97;100.00;97004.44;5057963;28;20189;-70
2021/12/09 05:32:52;;;;;;;5.47;3.20;;;;;;;3.08;100.00;97005.69;5058271;28;20200;-70
2021/12/09 05:35:19;;;;;;;6.87;3.33;;;;;;;3.08;100.00;97003.84;5058137;28;20214;-70
2021/12/09 05:37:48;;;;;;;7.57;3.10;;;;;;;3.05;100.00;97006.91;5057982;28;20208;-70
2021/12/09 05:40:15;;;;;;;8.10;3.00;;;;;;;3.03;100.00;97021.22;5058052;28;20608;-70
2021/12/09 05:42:42;;;;;;;7.50;3.27;;;;;;;3.05;100.00;97024.44;5057590;28;20194;-68
2021/12/09 05:45:09;;;;;;;8.67;3.47;;;;;;;3.05;100.00;97032.34;5057370;28;20546;-67
2021/12/09 05:47:36;;;;;;;7.30;3.37;;;;;;;3.09;100.00;97030.94;5057815;28;20216;-68
2021/12/09 05:50:02;;;;;;;6.33;3.00;;;;;;;3.15;100.00;97024.88;5057848;28;20200;-68
2021/12/09 05:52:28;;;;;;;7.67;3.57;;;;;;;3.14;99.03;97033.78;5057674;28;20202;-67
2021/12/09 05:54:55;;;;;;;11.50;3.17;;;;;;;3.16;99.17;97026.53;5057712;28;20226;-68
2021/12/09 05:57:21;;;;;;;4.77;2.20;;;;;;;3.11;99.87;97029.72;5057556;28;20281;-68
2021/12/09 05:59:47;;;;;;;7.93;2.70;;;;;;;3.14;99.03;97034.59;5057434;28;20194;-68
2021/12/09 06:02:17;;;;;;;6.67;2.77;;;;;;;3.06;99.96;97026.06;5057458;28;20200;-68
2021/12/09 06:04:44;;;;;;;14.13;3.00;;;;;;;3.04;100.00;97028.09;5056921;28;20236;-68
2021/12/09 06:07:11;;;;;;;5.40;2.67;;;;;;;3.02;99.13;97030.13;5057234;28;20198;-68
2021/12/09 06:09:38;;;;;;;7.40;2.23;;;;;;;3.00;99.73;97034.75;5057292;28;20484;-67
2021/12/09 06:12:06;;;;;;;8.03;2.43;;;;;;;2.91;99.14;97026.25;5056485;28;20220;-68
2021/12/09 06:14:32;;;;;;;7.60;2.27;;;;;;;2.94;97.89;97035.53;5056690;28;20216;-68
2021/12/09 06:16:59;;;;;;;8.73;2.37;;;;;;;2.90;99.72;97034.31;5056773;28;20247;-67
2021/12/09 06:19:26;;;;;;;5.60;2.27;;;;;;;2.87;98.47;97037.31;5057471;28;20203;-70
2021/12/09 06:21:52;;;;;;;5.53;2.40;;;;;;;2.90;97.84;97032.50;5056817;28;20577;-70
2021/12/09 06:24:20;;;;;;;10.73;2.37;;;;;;;2.88;99.12;97036.28;5056791;28;20233;-70
2021/12/09 06:26:47;;;;;;;6.33;2.33;;;;;;;2.86;98.84;97028.66;5056601;28;20232;-70
2021/12/09 06:29:13;;;;;;;7.73;2.50;;;;;;;2.89;98.85;97036.09;5055966;28;20189;-70
2021/12/09 06:31:40;;;;;;;5.83;2.10;;;;;;;2.94;99.59;97022.41;5057024;28;20548;-70
2021/12/09 06:34:06;;;;;;;7.33;1.90;;;;;;;3.00;97.76;97032.13;5056640;28;20217;-71
2021/12/09 06:36:33;;;;;;;8.53;2.13;;;;;;;2.92;97.96;97027.03;5056529;28;20522;-70
2021/12/09 06:38:59;;;;;;;4.93;2.00;;;;;;;2.91;99.37;97028.03;5056382;28;20189;-71
2021/12/09 06:41:26;;;;;;;6.00;2.00;;;;;;;2.97;99.19;97027.25;5056344;28;20220;-70
2021/12/09 06:43:52;;;;;;;7.63;1.80;;;;;;;2.96;98.62;97033.50;5056108;28;20216;-70
2021/12/09 06:46:18;;;;;;;5.20;1.60;;;;;;;2.94;96.96;97032.91;5055984;28;20616;-70
2021/12/09 06:48:45;;;;;;;4.40;1.80;;;;;;;3.01;96.85;97026.66;5056431;28;20208;-70
2021/12/09 06:51:11;;;;;;;6.97;1.90;;;;;;;3.01;95.54;97033.72;5056396;28;20192;-70
2021/12/09 06:53:38;;;;;;;7.60;1.90;;;;;;;3.05;95.34;97027.06;5055990;28;20659;-68
2021/12/09 06:56:06;;;;;;;8.37;2.63;;;;;;;3.06;95.10;97023.44;5056170;28;20213;-67
2021/12/09 06:58:34;;;;;;;4.33;1.60;;;;;;;3.07;94.70;97030.34;5056362;28;20189;-68
2021/12/09 07:01:01;;;;;;;7.20;1.97;;;;;;;3.04;96.58;97025.47;5056173;28;20189;-68
2021/12/09 07:03:28;;;;;;;5.73;2.07;;;;;;;3.06;94.66;97020.81;5056250;28;20298;-68
2021/12/09 07:06:01;;;;;;;3.97;1.93;;;;;;;3.05;96.70;97019.22;5055794;28;20217;-67
2021/12/09 07:08:27;;;;;;;5.80;1.80;;;;;;;3.04;95.27;97030.72;5056192;28;20197;-68
2021/12/09 07:10:54;;;;;;;6.07;2.03;;;;;;;3.04;95.35;97038.59;5055928;28;20220;-68
2021/12/09 07:13:21;;;;;;;3.90;1.77;;;;;;;3.05;95.55;97027.06;5055800;28;20619;-67
2021/12/09 07:15:48;;;;;;;5.37;1.90;;;;;;;3.05;97.61;97027.91;5055933;28;20196;-68
2021/12/09 07:18:14;;;;;;;3.67;1.80;;;;;;;3.04;95.97;97033.34;5056372;28;20200;-68
2021/12/09 07:20:40;;;;;;;6.20;2.10;;;;;;;3.10;93.09;97036.00;5055966;28;20201;-68
2021/12/09 07:23:07;;;;;;;7.43;2.20;;;;;;;3.18;91.78;97050.75;5055952;28;20194;-68
2021/12/09 07:25:34;;;;;;;3.30;1.90;;;;;;;3.21;92.88;97043.28;5055997;28;20283;-68
2021/12/09 07:28:00;;;;;;;7.47;2.20;;;;;;;3.18;93.84;97043.72;5055915;28;20192;-68
2021/12/09 07:30:28;;;;;;;5.93;1.87;;;;;;;3.17;93.64;97052.56;5055676;28;20197;-68
2021/12/09 07:32:54;;;;;;;6.93;2.60;;;;;;;3.21;95.53;97050.38;5055782;28;20204;-68
2021/12/09 07:35:23;;;;;;;6.07;2.30;;;;;;;3.18;95.69;97058.63;5056422;28;20228;-68
2021/12/09 07:37:49;;;;;;;2.37;1.90;;;;;;;3.31;92.22;97053.44;5055987;28;20527;-69
2021/12/09 07:40:18;;;;;;;5.10;2.40;;;;;;;3.35;92.58;97057.28;5056191;28;20616;-68
2021/12/09 07:42:45;;;;;;;4.57;2.20;;;;;;;3.38;92.30;97068.19;5059669;28;20503;-68
2021/12/09 07:45:12;;;;;;;5.13;2.63;;;;;;;3.39;93.44;97063.75;5059282;28;20221;-69
2021/12/09 07:47:39;;;;;;;6.67;2.63;;;;;;;3.37;94.21;97065.75;5059765;28;20220;-69
2021/12/09 07:50:07;;;;;;;6.47;2.47;;;;;;;3.36;93.02;97070.22;5059660;28;20630;-69
2021/12/09 07:52:34;;;;;;;4.43;2.60;;;;;;;3.46;92.74;97075.09;5060013;28;20291;-69
2021/12/09 07:55:00;;;;;;;6.50;2.93;;;;;;;3.49;92.81;97074.69;5059668;28;20213;-72
2021/12/09 07:57:26;;;;;;;6.87;2.53;;;;;;;3.50;92.48;97069.25;5059832;28;20201;-72
2021/12/09 07:59:53;;;;;;;6.63;3.13;;;;;;;3.60;91.91;97076.72;5059887;28;20201;-69
2021/12/09 08:02:19;;;;;;;5.70;2.97;;;;;;;3.55;92.33;97077.34;5059691;28;20197;-69
2021/12/09 08:04:46;;;;;;;8.63;2.87;;;;;;;3.50;92.52;97074.50;5059643;28;20228;-69
2021/12/09 08:07:12;;;;;;;7.73;2.87;;;;;;;3.57;91.45;97071.91;5059682;28;20189;-70
2021/12/09 08:09:38;;;;;;;7.47;3.30;;;;;;;3.49;94.28;97085.22;5059705;28;20208;-69
2021/12/09 08:12:05;;;;;;;6.97;2.83;;;;;;;3.55;92.38;97081.78;5059046;28;20225;-69
2021/12/09 08:14:31;;;;;;;4.87;2.90;;;;;;;3.58;92.28;97082.22;5060207;28;20221;-74
2021/12/09 08:17:10;;;;;;;7.77;2.57;;;;;;;3.60;93.36;97082.00;5059409;28;20198;-74
2021/12/09 08:19:37;;;;;;;4.90;2.80;;;;;;;3.64;91.12;97081.41;5059543;28;20220;-73
2021/12/09 08:22:04;;;;;;;7.57;2.90;;;;;;;3.63;92.75;97082.44;5059074;28;20204;-72
2021/12/09 08:24:30;;;;;;;5.77;2.90;;;;;;;3.72;92.92;97088.28;5058926;28;20316;-72
2021/12/09 08:26:57;;;;;;;9.80;3.60;;;;;;;3.67;94.66;97080.19;5059310;28;20207;-72
2021/12/09 08:29:23;;;;;;;3.77;2.60;;;;;;;3.66;95.67;97087.25;5059224;28;20197;-73
2021/12/09 08:31:49;;;;;;;6.27;2.90;;;;;;;3.63;92.84;97089.50;5059062;28;20208;-72
2021/12/09 08:34:16;;;;;;;4.73;2.70;;;;;;;3.63;93.17;97090.31;5059081;28;20229;-72
2021/12/09 08:36:42;;;;;;;5.53;2.53;;;;;;;3.71;91.95;97089.31;5059130;28;20293;-72
2021/12/09 08:39:09;;;;;;;6.20;2.70;;;;;;;3.72;91.64;97094.38;5059109;28;20201;-73
2021/12/09 08:41:35;;;;;;;4.17;2.50;;;;;;;3.76;91.72;97100.03;5059084;28;20208;-74
2021/12/09 08:44:01;;;;;;;6.27;2.37;;;;;;;3.81;90.66;97097.63;5058772;28;20498;-72
2021/12/09 08:46:28;;;;;;;5.70;2.20;;;;;;;3.83;90.28;97098.22;5058931;28;20193;-72
2021/12/09 08:48:56;;;;;;;6.60;1.93;;;;;;;3.89;90.19;97105.31;5058962;28;20201;-72
2021/12/09 08:51:22;;;;;;;5.67;2.03;;;;;;;3.88;90.19;97098.44;5058618;28;20197;-72
2021/12/09 08:53:49;;;;;;;3.50;2.07;;;;;;;3.87;89.80;97108.13;5057754;28;20227;-72
2021/12/09 08:56:15;;;;;;;4.97;2.30;;;;;;;3.87;90.50;97112.56;5058727;28;20201;-73
2021/12/09 08:58:42;;;;;;;4.33;2.13;;;;;;;3.90;89.90;97122.69;5058739;28;20197;-72
2021/12/09 09:01:11;;;;;;;3.20;2.03;;;;;;;3.93;90.36;97114.44;5058514;28;20194;-74
2021/12/09 09:03:38;;;;;;;5.50;2.43;;;;;;;3.92;90.62;97123.28;5058417;28;20227;-73
2021/12/09 09:06:05;;;;;;;4.27;2.30;;;;;;;3.94;90.36;97116.81;5058649;28;20213;-72
2021/12/09 09:08:32;;;;;;;5.73;2.27;;;;;;;3.97;90.44;97120.91;5058567;28;20197;-68
2021/12/09 09:10:58;;;;;;;5.97;2.13;;;;;;;3.91;91.40;97126.94;5058648;28;20209;-68
2021/12/09 09:13:24;;;;;;;5.83;2.83;;;;;;;3.93;88.72;97125.72;5057841;28;20511;-68
2021/12/09 09:15:51;;;;;;;5.57;2.50;;;;;;;4.00;89.64;97134.47;5058411;28;20197;-68
2021/12/09 09:18:20;;;;;;;5.77;2.43;;;;;;;4.05;89.03;97136.47;5058054;28;20629;-68
2021/12/09 09:20:48;;;;;;;6.73;2.60;;;;;;;4.07;89.08;97131.84;5058434;28;20202;-69
2021/12/09 09:23:18;;;;;;;5.47;2.30;;;;;;;4.16;88.45;97141.16;5057910;28;20205;-68
2021/12/09 09:25:44;;;;;;;6.13;2.30;;;;;;;4.16;90.81;97138.53;5057764;28;20531;-68
2021/12/09 09:28:11;;;;;;;4.27;2.70;;;;;;;4.22;91.09;97148.22;5058302;28;20208;-68
2021/12/09 09:30:43;;;;;;;4.90;2.87;;;;;;;4.21;90.85;97142.16;5057852;28;20263;-67
2021/12/09 09:33:14;;;;;;;4.60;2.63;;;;;;;4.33;88.59;97148.44;5058059;28;20211;-69
2021/12/09 09:35:42;;;;;;;3.27;2.40;;;;;;;4.42;89.67;97141.97;5058215;28;20193;-68
2021/12/09 09:38:09;;;;;;;3.37;2.03;;;;;;;4.43;88.60;97143.56;5057872;28;20216;-68
2021/12/09 09:40:49;;;;;;;4.17;2.33;;;;;;;4.46;88.20;97147.63;5058027;28;20205;-71
2021/12/09 09:43:28;;;;;;;3.43;2.40;;;;;;;4.48;89.42;97148.25;5057995;28;20638;-72
2021/12/09 09:45:58;;;;;;;5.53;2.67;;;;;;;4.49;89.42;97155.13;5057626;28;20209;-71
2021/12/09 09:48:25;;;;;;;5.93;2.37;;;;;;;4.60;87.24;97154.50;5057836;28;20216;-71
2021/12/09 09:50:52;;;;;;;7.00;2.30;;;;;;;4.54;88.26;97158.78;5057804;28;20205;-72
2021/12/09 09:53:19;;;;;;;5.50;2.03;;;;;;;4.57;89.03;97166.25;5057685;28;20205;-71
2021/12/09 09:55:47;;;;;;;4.60;2.60;;;;;;;4.49;87.83;97165.66;5057755;28;20182;-71
2021/12/09 09:58:17;;;;;;;4.03;2.40;;;;;;;4.54;88.39;97163.22;5057603;28;20202;-71
2021/12/09 10:00:44;;;;;;;4.43;2.20;;;;;;;4.61;88.63;97169.31;5057752;28;20220;-71
2021/12/09 10:03:16;;;;;;;5.20;2.37;;;;;;;4.64;88.07;97163.63;5057346;28;20208;-71
2021/12/09 10:05:50;;;;;;;2.57;2.37;;;;;;;4.59;87.14;97163.41;5057697;28;20245;-71
2021/12/09 10:08:18;;;;;;;6.53;1.97;;;;;;;4.65;87.74;97163.41;5057223;28;20498;-71
2021/12/09 10:10:47;;;;;;;4.97;2.50;;;;;;;4.65;86.90;97166.06;5057268;28;20213;-71
2021/12/09 10:13:18;;;;;;;5.67;2.50;;;;;;;4.75;87.32;97168.28;5056997;28;20599;-71
2021/12/09 10:15:53;;;;;;;7.60;2.63;;;;;;;4.78;87.65;97158.16;5057124;28;20185;-71
2021/12/09 10:18:39;;;;;;;5.50;2.40;;;;;;;4.72;88.91;97163.41;5057371;28;20204;-71
2021/12/09 10:21:10;;;;;;;4.97;2.47;;;;;;;4.74;87.01;97170.09;5057841;28;20289;-71
2021/12/09 10:23:40;;;;;;;5.37;2.50;;;;;;;4.86;90.38;97157.94;5056933;28;20221;-70
2021/12/09 10:26:20;;;;;;;4.97;2.30;;;;;;;4.84;86.78;97164.44;5056774;28;20225;-70
2021/12/09 10:29:04;;;;;;;5.23;2.33;;;;;;;4.84;89.26;97167.06;5057028;28;20201;-70
2021/12/09 10:31:35;;;;;;;4.57;2.40;;;;;;;4.84;88.83;97169.69;5056822;28;20514;-71
2021/12/09 10:34:33;;;;;;;4.83;2.07;;;;;;;4.94;87.25;97167.44;5057078;28;20221;-71
2021/12/09 10:37:08;;;;;;;5.83;2.20;;;;;;;4.88;86.53;97169.06;5056657;28;20565;-71
2021/12/09 10:39:34;;;;;;;3.80;2.00;;;;;;;4.86;87.62;97165.03;5057023;28;20201;-71
2021/12/09 10:42:06;;;;;;;4.67;2.43;;;;;;;4.94;87.10;97162.19;5056947;28;20264;-72
2021/12/09 10:44:39;;;;;;;5.03;2.27;;;;;;;4.86;87.48;97167.66;5056504;28;20232;-72
2021/12/09 10:47:12;;;;;;;3.93;2.20;;;;;;;4.83;89.66;97168.88;5056381;28;20599;-68
2021/12/09 10:49:52;;;;;;;5.67;2.60;;;;;;;4.84;91.78;97167.06;5057022;28;20316;-69
2021/12/09 10:52:36;;;;;;;3.37;1.93;;;;;;;4.83;87.23;97171.50;5056606;28;20284;-68
2021/12/09 10:55:12;;;;;;;4.03;2.23;;;;;;;4.87;89.14;97166.63;5056555;28;20213;-69
2021/12/09 10:57:38;;;;;;;3.93;2.10;;;;;;;4.95;86.18;97166.44;5056598;28;20190;-68
2021/12/09 11:00:30;;;;;;;3.47;2.10;;;;;;;5.00;87.08;97158.72;5056141;28;20481;-68
2021/12/09 11:03:00;;;;;;;4.87;2.60;;;;;;;5.08;89.17;97154.06;5053652;28;20201;-69
2021/12/09 11:05:27;;;;;;;6.27;2.23;;;;;;;5.17;85.55;97157.25;5056514;28;20232;-69
2021/12/09 11:07:54;;;;;;;4.87;2.40;;;;;;;5.25;86.18;97155.22;5056306;28;20205;-69
2021/12/09 11:10:24;;;;;;;5.60;2.20;;;;;;;5.21;85.73;97156.63;5056062;28;20201;-68
2021/12/09 11:12:56;;;;;;;6.17;2.30;;;;;;;5.29;83.34;97153.00;5055888;28;20225;-68
2021/12/09 11:15:54;;;;;;;5.90;2.20;;;;;;;5.35;85.49;97147.69;5055067;28;20501;-69
2021/12/09 11:18:36;;;;;;;4.57;2.07;;;;;;;5.38;83.57;97146.47;5055978;28;20212;-69
2021/12/09 11:21:24;;;;;;;4.10;2.50;;;;;;;5.39;81.65;97153.34;5056093;28;20276;-69
2021/12/09 11:24:04;;;;;;;6.40;2.40;;;;;;;5.31;84.26;97150.94;5055972;28;20248;-69
2021/12/09 11:26:51;;;;;;;3.33;2.33;;;;;;;5.40;82.47;97149.69;5055651;28;20224;-69
2021/12/09 11:29:35;;;;;;;3.67;1.97;;;;;;;5.34;84.62;97150.53;5055407;28;20201;-69
2021/12/09 11:32:12;;;;;;;4.63;2.13;;;;;;;5.34;85.75;97148.69;5055953;28;20280;-69
2021/12/09 11:34:46;;;;;;;5.93;2.27;;;;;;;5.32;83.38;97142.00;5055806;28;20221;-69
2021/12/09 11:37:39;;;;;;;4.03;2.17;;;;;;;5.16;82.59;97143.28;5055744;28;20280;-69
2021/12/09 11:40:28;;;;;;;5.30;2.10;;;;;;;5.30;82.46;97133.50;5055682;28;20201;-69
2021/12/09 11:42:59;;;;;;;3.97;2.10;;;;;;;5.25;81.63;97131.50;5055427;28;20185;-68
2021/12/09 11:45:30;;;;;;;5.07;2.17;;;;;;;5.28;82.86;97132.91;5055928;28;20520;-69